Time;durP1;ratioP1;P1;durP2;ratioP2;P2;SDS_P1;SDS_P2;PMS_P1;PMS_P2;Temp;Humidity;BMP_temperature;BMP_pressure;BME280_temperature;BME280_humidity;BME280_pressure;Samples;Min_cycle;Max_cycle;Signal;HPM_P1;HPM_P2
2024/02/05 00:01:18;;;;;;;9.10;3.23;;;11.80;99.90;;;;;;5071705;28;20162;-72
2024/02/05 00:03:46;;;;;;;10.53;2.77;;;11.70;99.90;;;;;;5071588;28;20201;-72
2024/02/05 00:06:13;;;;;;;11.30;3.10;;;11.80;99.90;;;;;;5071529;28;20428;-72
2024/02/05 00:08:39;;;;;;;6.90;2.30;;;11.80;99.90;;;;;;5071480;28;20389;-72
2024/02/05 00:11:05;;;;;;;6.50;2.93;;;11.80;99.90;;;;;;5071668;28;20431;-72
2024/02/05 00:13:32;;;;;;;5.23;2.90;;;11.80;99.90;;;;;;5071574;28;20424;-72
2024/02/05 00:15:57;;;;;;;7.70;2.23;;;11.80;99.90;;;;;;5070515;28;20966;-72
2024/02/05 00:18:24;;;;;;;5.70;2.60;;;11.80;99.90;;;;;;5071339;28;20405;-72
2024/02/05 00:20:50;;;;;;;4.40;2.60;;;11.90;99.90;;;;;;5071532;28;20190;-72
2024/02/05 00:23:16;;;;;;;3.30;2.10;;;11.90;99.90;;;;;;5070123;28;20452;-72
2024/02/05 00:25:42;;;;;;;2.30;2.10;;;11.90;99.90;;;;;;5071507;28;20432;-73
2024/02/05 00:28:07;;;;;;;5.10;3.03;;;11.90;99.90;;;;;;5071193;28;20894;-73
2024/02/05 00:30:33;;;;;;;5.17;2.73;;;12.00;99.90;;;;;;5071527;28;20167;-72
2024/02/05 00:32:59;;;;;;;8.00;2.80;;;12.00;99.90;;;;;;5071373;28;20170;-72
2024/02/05 00:35:24;;;;;;;8.03;2.70;;;12.00;99.90;;;;;;5071297;28;20213;-72
2024/02/05 00:37:50;;;;;;;13.47;2.80;;;12.10;99.90;;;;;;5071216;28;20174;-72
2024/02/05 00:40:16;;;;;;;7.80;2.30;;;12.10;99.90;;;;;;5070437;28;20795;-72
2024/02/05 00:42:42;;;;;;;6.60;2.83;;;12.10;99.90;;;;;;5072569;28;20162;-72
2024/02/05 00:45:09;;;;;;;6.67;2.70;;;12.20;99.90;;;;;;5074979;28;20423;-72
2024/02/05 00:47:34;;;;;;;7.47;3.20;;;12.20;99.90;;;;;;5073536;28;20494;-73
2024/02/05 00:50:00;;;;;;;17.03;2.80;;;12.30;99.90;;;;;;5074920;28;20400;-73
2024/02/05 00:52:27;;;;;;;7.97;3.10;;;12.20;99.90;;;;;;5074844;28;20588;-72
2024/02/05 00:54:53;;;;;;;5.20;3.43;;;12.20;99.90;;;;;;5074801;28;20173;-72
2024/02/05 00:57:19;;;;;;;8.60;3.10;;;12.20;99.90;;;;;;5074990;28;20771;-72
2024/02/05 00:59:44;;;;;;;6.00;2.30;;;12.20;99.90;;;;;;5074632;28;20165;-72
2024/02/05 01:02:10;;;;;;;4.43;2.93;;;12.10;99.90;;;;;;5074789;28;20280;-72
2024/02/05 01:04:37;;;;;;;5.67;2.70;;;12.10;99.90;;;;;;5074605;28;20193;-73
2024/02/05 01:07:02;;;;;;;7.60;3.47;;;12.00;99.90;;;;;;5074716;28;20186;-72
2024/02/05 01:09:29;;;;;;;8.00;2.90;;;12.10;99.90;;;;;;5074458;28;20400;-72
2024/02/05 01:11:54;;;;;;;7.53;3.23;;;12.10;99.90;;;;;;5074552;28;20450;-72
2024/02/05 01:14:20;;;;;;;8.73;2.90;;;12.10;99.90;;;;;;5074536;28;20760;-72
2024/02/05 01:16:46;;;;;;;9.13;2.87;;;12.10;99.90;;;;;;5074443;28;20186;-72
2024/02/05 01:19:12;;;;;;;13.33;4.30;;;12.00;99.90;;;;;;5074274;28;20166;-72
2024/02/05 01:21:37;;;;;;;8.70;3.30;;;12.00;99.90;;;;;;5074405;28;20765;-72
2024/02/05 01:24:03;;;;;;;9.53;4.80;;;11.90;99.90;;;;;;5074245;28;20673;-72
2024/02/05 01:26:29;;;;;;;10.50;3.00;;;12.00;99.90;;;;;;5074221;28;20253;-72
2024/02/05 01:28:55;;;;;;;6.73;2.93;;;12.00;99.90;;;;;;5072965;28;20200;-72
2024/02/05 01:31:21;;;;;;;8.50;2.80;;;12.10;99.90;;;;;;5074306;28;20404;-72
2024/02/05 01:33:46;;;;;;;13.23;2.47;;;12.10;99.90;;;;;;5074103;28;20172;-72
2024/02/05 01:36:12;;;;;;;9.13;3.27;;;12.20;99.90;;;;;;5074065;28;20189;-72
2024/02/05 01:38:38;;;;;;;10.57;3.57;;;12.20;99.90;;;;;;5073852;28;20171;-72
2024/02/05 01:41:04;;;;;;;6.93;3.07;;;12.20;99.90;;;;;;5073943;28;20224;-72
2024/02/05 01:43:29;;;;;;;11.47;3.83;;;12.10;99.90;;;;;;5073932;28;20440;-72
2024/02/05 01:45:55;;;;;;;6.20;2.50;;;12.10;99.90;;;;;;5073984;28;20189;-72
2024/02/05 01:48:24;;;;;;;7.57;2.60;;;12.00;99.90;;;;;;5073663;28;20159;-72
2024/02/05 01:50:51;;;;;;;13.60;3.57;;;12.00;99.90;;;;;;5073892;28;20451;-72
2024/02/05 01:53:17;;;;;;;17.23;5.43;;;12.00;99.90;;;;;;5073568;28;20447;-72
2024/02/05 01:55:45;;;;;;;7.73;2.80;;;12.00;99.90;;;;;;5073738;28;20463;-72
2024/02/05 01:58:11;;;;;;;8.73;2.77;;;12.00;99.90;;;;;;5072205;28;20170;-72
2024/02/05 02:00:37;;;;;;;10.67;2.70;;;12.00;99.90;;;;;;5073658;28;20404;-72
2024/02/05 02:03:03;;;;;;;13.57;3.27;;;12.00;99.90;;;;;;5073444;28;20452;-72
2024/02/05 02:05:29;;;;;;;16.33;3.60;;;12.00;99.90;;;;;;5073499;28;20787;-72
2024/02/05 02:07:55;;;;;;;11.13;3.27;;;12.00;99.90;;;;;;5073400;28;20235;-72
2024/02/05 02:10:21;;;;;;;13.50;3.60;;;12.00;99.90;;;;;;5073435;28;20396;-73
2024/02/05 02:12:47;;;;;;;12.13;3.43;;;11.90;99.90;;;;;;5073426;28;20190;-73
2024/02/05 02:15:12;;;;;;;5.43;3.30;;;11.90;99.90;;;;;;5073329;28;20178;-72
2024/02/05 02:17:43;;;;;;;10.80;4.50;;;11.90;99.90;;;;;;5073121;28;20397;-72
2024/02/05 02:20:10;;;;;;;7.17;2.83;;;11.90;99.90;;;;;;5073414;28;20319;-73
2024/02/05 02:22:53;;;;;;;9.07;3.40;;;11.90;99.90;;;;;;5073301;28;20422;-72
2024/02/05 02:25:20;;;;;;;9.87;3.50;;;12.00;99.90;;;;;;5073124;28;20527;-72
2024/02/05 02:27:45;;;;;;;6.63;2.93;;;12.00;99.90;;;;;;5072826;28;20397;-72
2024/02/05 02:30:14;;;;;;;8.10;3.93;;;12.00;99.90;;;;;;5073043;28;20407;-72
2024/02/05 02:32:53;;;;;;;10.90;3.97;;;12.00;99.90;;;;;;5073036;28;20166;-73
2024/02/05 02:35:38;;;;;;;7.33;3.73;;;12.10;99.90;;;;;;5072968;28;20786;-72
2024/02/05 02:38:32;;;;;;;20.10;10.57;;;12.00;99.90;;;;;;5072709;28;20389;-73
2024/02/05 02:41:03;;;;;;;12.73;3.23;;;12.00;99.90;;;;;;5067589;28;20496;-72
2024/02/05 02:43:35;;;;;;;12.67;3.17;;;11.90;99.90;;;;;;5072747;28;20448;-72
2024/02/05 02:46:03;;;;;;;8.67;3.10;;;11.90;99.90;;;;;;5072712;28;20499;-73
2024/02/05 02:48:28;;;;;;;15.93;3.50;;;11.90;99.90;;;;;;5072553;28;20401;-72
2024/02/05 02:50:54;;;;;;;8.63;2.50;;;11.80;99.90;;;;;;5071405;28;20458;-73
2024/02/05 02:53:19;;;;;;;10.70;3.00;;;11.90;99.90;;;;;;5072459;28;20197;-72
2024/02/05 02:55:45;;;;;;;13.73;3.80;;;11.90;99.90;;;;;;5072524;28;20193;-72
2024/02/05 02:58:11;;;;;;;8.00;2.97;;;11.90;99.90;;;;;;5072311;28;20193;-72
2024/02/05 03:00:37;;;;;;;10.30;4.13;;;11.90;99.90;;;;;;5072545;28;20166;-72
2024/02/05 03:03:02;;;;;;;10.43;3.70;;;11.90;99.90;;;;;;5072409;28;20182;-73
2024/02/05 03:05:28;;;;;;;10.20;3.30;;;11.90;99.90;;;;;;5071751;28;20435;-72
2024/02/05 03:07:53;;;;;;;8.03;3.20;;;11.90;99.90;;;;;;5072182;28;20193;-72
2024/02/05 03:10:19;;;;;;;12.10;3.60;;;11.90;99.90;;;;;;5072291;28;20165;-72
2024/02/05 03:12:44;;;;;;;16.63;3.70;;;11.90;99.90;;;;;;5072334;28;20166;-72
2024/02/05 03:15:10;;;;;;;12.53;3.90;;;11.80;99.90;;;;;;5072218;28;20260;-73
2024/02/05 03:17:36;;;;;;;9.47;3.10;;;11.80;99.90;;;;;;5072050;28;20173;-72
2024/02/05 03:20:01;;;;;;;7.17;2.40;;;11.80;99.90;;;;;;5072152;28;20162;-72
2024/02/05 03:22:27;;;;;;;11.37;3.77;;;11.80;99.90;;;;;;5072185;28;20642;-73
2024/02/05 03:24:52;;;;;;;7.63;2.80;;;11.80;99.90;;;;;;5071990;28;20267;-72
2024/02/05 03:27:18;;;;;;;13.10;3.27;;;11.90;99.90;;;;;;5072094;28;20170;-72
2024/02/05 03:29:44;;;;;;;21.47;5.73;;;11.90;99.90;;;;;;5072023;28;20207;-72
2024/02/05 03:32:09;;;;;;;16.83;4.67;;;11.80;99.90;;;;;;5072046;28;20162;-72
2024/02/05 03:34:35;;;;;;;13.07;3.40;;;11.80;99.90;;;;;;5071970;28;20178;-72
2024/02/05 03:37:00;;;;;;;11.80;3.60;;;11.80;99.90;;;;;;5071945;28;20194;-72
2024/02/05 03:39:26;;;;;;;7.90;3.17;;;11.70;99.90;;;;;;5071779;28;20170;-72
2024/02/05 03:41:52;;;;;;;10.87;2.97;;;11.80;99.90;;;;;;5071970;28;20170;-72
2024/02/05 03:44:18;;;;;;;14.40;4.23;;;11.70;99.90;;;;;;5071787;28;20523;-72
2024/02/05 03:46:43;;;;;;;11.07;3.67;;;11.70;99.90;;;;;;5071850;28;20562;-72
2024/02/05 03:49:09;;;;;;;11.67;3.17;;;11.80;99.90;;;;;;5070366;28;20158;-72
2024/02/05 03:51:34;;;;;;;28.33;12.77;;;11.80;99.90;;;;;;5071872;28;20165;-73
2024/02/05 03:54:04;;;;;;;8.63;5.70;;;11.90;99.90;;;;;;5071658;28;20591;-72
2024/02/05 03:56:30;;;;;;;23.00;4.47;;;11.90;99.90;;;;;;5071885;28;20216;-72
2024/02/05 03:58:55;;;;;;;7.30;3.57;;;11.90;99.90;;;;;;5071550;28;20404;-72
2024/02/05 04:01:21;;;;;;;19.27;4.50;;;11.90;99.90;;;;;;5071783;28;20177;-72
2024/02/05 04:03:46;;;;;;;14.83;3.90;;;11.80;99.90;;;;;;5071578;28;20273;-73
2024/02/05 04:06:12;;;;;;;11.87;3.70;;;11.90;99.90;;;;;;5070345;28;20284;-72
2024/02/05 04:08:38;;;;;;;9.83;3.40;;;11.90;99.90;;;;;;5071506;28;20535;-72
2024/02/05 04:11:03;;;;;;;20.33;4.33;;;11.80;99.90;;;;;;5071809;28;20254;-72
2024/02/05 04:13:29;;;;;;;8.43;3.47;;;11.80;99.90;;;;;;5071636;28;20232;-72
2024/02/05 04:15:54;;;;;;;14.87;3.83;;;11.80;99.90;;;;;;5071575;28;20603;-72
2024/02/05 04:18:20;;;;;;;16.53;3.77;;;11.80;99.90;;;;;;5072581;28;20192;-72
2024/02/05 04:20:45;;;;;;;9.83;3.00;;;11.70;99.90;;;;;;5075773;28;20193;-72
2024/02/05 04:23:11;;;;;;;10.93;2.77;;;11.80;99.90;;;;;;5075483;28;20197;-72
2024/02/05 04:25:36;;;;;;;12.50;3.10;;;11.80;99.90;;;;;;5075391;28;20544;-72
2024/02/05 04:28:02;;;;;;;8.70;3.10;;;11.80;99.90;;;;;;5075244;28;20170;-72
2024/02/05 04:30:36;;;;;;;15.00;3.03;;;11.80;99.90;;;;;;5075428;28;20242;-72
2024/02/05 04:33:02;;;;;;;10.43;2.97;;;11.90;99.90;;;;;;5075324;28;20161;-72
2024/02/05 04:35:27;;;;;;;7.03;3.20;;;11.90;99.90;;;;;;5075225;28;20672;-72
2024/02/05 04:37:53;;;;;;;15.20;4.30;;;11.90;99.90;;;;;;5075031;28;20249;-72
2024/02/05 04:40:19;;;;;;;13.40;3.50;;;11.80;99.90;;;;;;5075224;28;20170;-72
2024/02/05 04:42:44;;;;;;;13.60;4.73;;;11.70;99.90;;;;;;5073800;28;20339;-72
2024/02/05 04:45:10;;;;;;;9.00;3.07;;;11.70;99.90;;;;;;5075058;28;20193;-72
2024/02/05 04:47:35;;;;;;;9.20;3.97;;;11.70;99.90;;;;;;5074739;28;20170;-72
2024/02/05 04:50:01;;;;;;;8.00;3.57;;;11.70;99.90;;;;;;5075094;28;20245;-72
2024/02/05 04:52:26;;;;;;;9.50;3.73;;;11.70;99.90;;;;;;5075076;28;20181;-72
2024/02/05 04:54:53;;;;;;;6.70;3.20;;;11.60;99.90;;;;;;5074870;28;20177;-73
2024/02/05 04:57:18;;;;;;;20.50;4.03;;;11.60;99.90;;;;;;5074841;28;20268;-72
2024/02/05 04:59:44;;;;;;;10.90;3.27;;;11.70;99.90;;;;;;5073341;28;20537;-72
2024/02/05 05:02:10;;;;;;;8.60;4.07;;;11.50;99.90;;;;;;5074740;28;20242;-72
2024/02/05 05:04:36;;;;;;;21.73;3.63;;;11.60;99.90;;;;;;5074552;28;20197;-72
2024/02/05 05:07:02;;;;;;;20.43;4.00;;;11.50;99.90;;;;;;5074531;28;20174;-73
2024/02/05 05:09:28;;;;;;;11.60;3.07;;;11.50;99.90;;;;;;5074414;28;20400;-72
2024/02/05 05:11:54;;;;;;;11.50;3.80;;;11.50;99.90;;;;;;5074634;28;20641;-72
2024/02/05 05:14:19;;;;;;;7.23;3.40;;;11.50;99.90;;;;;;5074491;28;20237;-72
2024/02/05 05:16:45;;;;;;;11.60;3.37;;;11.50;99.90;;;;;;5074384;28;20420;-72
2024/02/05 05:19:10;;;;;;;9.07;3.60;;;11.40;99.90;;;;;;5072917;28;20178;-72
2024/02/05 05:21:36;;;;;;;5.97;3.30;;;11.40;99.90;;;;;;5074358;28;20174;-72
2024/02/05 05:24:01;;;;;;;9.63;3.50;;;11.40;99.90;;;;;;5074481;28;20220;-72
2024/02/05 05:26:27;;;;;;;8.87;3.07;;;11.40;99.90;;;;;;5074334;28;20193;-72
2024/02/05 05:28:52;;;;;;;13.20;3.53;;;11.40;99.90;;;;;;5073541;28;20162;-73
2024/02/05 05:31:18;;;;;;;11.53;5.00;;;11.40;99.90;;;;;;5074269;28;20163;-72
2024/02/05 05:33:45;;;;;;;7.93;3.17;;;11.30;99.90;;;;;;5074223;28;20166;-72
2024/02/05 05:36:10;;;;;;;11.43;3.00;;;11.30;99.90;;;;;;5074091;28;20194;-72
2024/02/05 05:38:36;;;;;;;11.73;3.50;;;11.30;99.90;;;;;;5073906;28;20462;-72
2024/02/05 05:41:03;;;;;;;8.63;3.30;;;11.30;99.90;;;;;;5074138;28;20178;-72
2024/02/05 05:43:29;;;;;;;17.37;3.37;;;11.40;99.90;;;;;;5073939;28;20202;-72
2024/02/05 05:45:55;;;;;;;8.60;3.43;;;11.30;99.90;;;;;;5073840;28;20463;-73
2024/02/05 05:48:21;;;;;;;13.77;3.50;;;11.30;99.90;;;;;;5073660;28;20416;-73
2024/02/05 05:50:48;;;;;;;12.93;4.33;;;11.30;99.90;;;;;;5074018;28;20408;-73
2024/02/05 05:53:13;;;;;;;11.53;3.13;;;11.30;99.90;;;;;;5074544;28;20190;-73
2024/02/05 05:55:39;;;;;;;13.40;3.40;;;11.20;99.90;;;;;;5073783;28;20432;-73
2024/02/05 05:58:04;;;;;;;10.40;4.40;;;11.20;99.90;;;;;;5073589;28;20204;-73
2024/02/05 06:00:30;;;;;;;12.60;5.63;;;11.20;99.90;;;;;;5073704;28;20167;-73
2024/02/05 06:02:56;;;;;;;13.53;4.43;;;11.20;99.90;;;;;;5073651;28;20540;-73
2024/02/05 06:05:22;;;;;;;8.00;2.63;;;11.20;99.90;;;;;;5073566;28;20725;-72
2024/02/05 06:07:48;;;;;;;8.47;3.03;;;11.20;99.90;;;;;;5073393;28;20484;-73
2024/02/05 06:10:13;;;;;;;6.17;2.97;;;11.20;99.90;;;;;;5073648;28;20249;-73
2024/02/05 06:12:40;;;;;;;19.33;4.10;;;11.10;99.90;;;;;;5073414;28;20194;-72
2024/02/05 06:15:07;;;;;;;9.97;3.73;;;11.00;99.90;;;;;;5073389;28;20193;-73
2024/02/05 06:17:33;;;;;;;10.67;3.30;;;11.00;99.90;;;;;;5073157;28;20851;-73
2024/02/05 06:19:58;;;;;;;12.53;3.53;;;11.00;99.90;;;;;;5073318;28;20500;-73
2024/02/05 06:22:24;;;;;;;16.50;3.73;;;11.00;99.90;;;;;;5073316;28;20205;-73
2024/02/05 06:24:49;;;;;;;12.10;3.30;;;11.00;99.90;;;;;;5072990;28;20208;-73
2024/02/05 06:27:15;;;;;;;10.70;2.93;;;10.90;99.90;;;;;;5073218;28;20653;-73
2024/02/05 06:29:40;;;;;;;8.33;3.20;;;10.80;99.90;;;;;;5072900;28;20173;-73
2024/02/05 06:32:06;;;;;;;9.93;3.40;;;10.80;99.90;;;;;;5071828;28;20174;-73
2024/02/05 06:34:33;;;;;;;11.80;3.50;;;10.80;99.90;;;;;;5073088;28;20637;-72
2024/02/05 06:36:59;;;;;;;6.90;3.43;;;10.70;99.90;;;;;;5072953;28;20186;-72
2024/02/05 06:39:24;;;;;;;8.53;3.20;;;10.70;99.90;;;;;;5072316;28;20405;-72
2024/02/05 06:41:51;;;;;;;10.67;3.43;;;10.60;99.90;;;;;;5072509;28;20314;-73
2024/02/05 06:44:17;;;;;;;8.07;3.40;;;10.60;99.90;;;;;;5072762;28;20194;-73
2024/02/05 06:46:43;;;;;;;17.47;5.03;;;10.60;99.90;;;;;;5072719;28;20427;-73
2024/02/05 06:49:08;;;;;;;9.90;3.00;;;10.60;99.90;;;;;;5072489;28;20844;-72
2024/02/05 06:51:34;;;;;;;14.13;2.97;;;10.50;99.90;;;;;;5072684;28;20242;-73
2024/02/05 06:53:59;;;;;;;9.17;3.60;;;10.50;99.90;;;;;;5072545;28;20182;-73
2024/02/05 06:56:25;;;;;;;15.87;3.73;;;10.40;99.90;;;;;;5072601;28;20217;-73
2024/02/05 06:58:50;;;;;;;7.43;3.70;;;10.30;99.90;;;;;;5071081;28;20174;-73
2024/02/05 07:01:16;;;;;;;14.47;4.33;;;10.30;99.90;;;;;;5072539;28;20593;-73
2024/02/05 07:03:41;;;;;;;11.03;3.83;;;10.30;99.90;;;;;;5072339;28;20190;-72
2024/02/05 07:06:07;;;;;;;12.90;3.77;;;10.30;99.90;;;;;;5072359;28;20531;-72
2024/02/05 07:08:32;;;;;;;22.00;3.93;;;10.20;99.90;;;;;;5072148;28;20169;-73
2024/02/05 07:10:58;;;;;;;10.27;4.70;;;10.20;99.90;;;;;;5072413;28;20249;-73
2024/02/05 07:13:23;;;;;;;5.60;2.73;;;10.20;99.90;;;;;;5072219;28;20223;-73
2024/02/05 07:15:49;;;;;;;13.50;3.77;;;10.20;99.90;;;;;;5072131;28;20189;-73
2024/02/05 07:18:14;;;;;;;6.23;3.23;;;10.20;99.90;;;;;;5071978;28;20197;-72
2024/02/05 07:20:41;;;;;;;12.60;3.40;;;10.20;99.90;;;;;;5070802;28;20170;-72
2024/02/05 07:23:07;;;;;;;6.53;3.00;;;10.20;99.90;;;;;;5072128;28;20169;-72
2024/02/05 07:25:38;;;;;;;11.10;3.27;;;10.20;99.90;;;;;;5071958;28;20424;-73
2024/02/05 07:28:04;;;;;;;9.37;3.70;;;10.20;99.90;;;;;;5071781;28;20165;-72
2024/02/05 07:30:32;;;;;;;14.20;2.80;;;10.30;99.90;;;;;;5071970;28;20401;-72
2024/02/05 07:32:57;;;;;;;7.60;3.07;;;10.40;99.90;;;;;;5071957;28;20397;-73
2024/02/05 07:35:23;;;;;;;5.57;2.63;;;10.40;99.90;;;;;;5071812;28;20511;-73
2024/02/05 07:37:49;;;;;;;4.37;2.70;;;10.40;99.90;;;;;;5071626;28;20162;-72
2024/02/05 07:40:15;;;;;;;8.37;3.60;;;10.50;99.90;;;;;;5070627;28;20173;-72
2024/02/05 07:42:40;;;;;;;6.83;2.80;;;10.50;99.90;;;;;;5071790;28;20181;-73
2024/02/05 07:45:06;;;;;;;4.30;2.83;;;10.60;99.90;;;;;;5071721;28;20673;-72
2024/02/05 07:47:32;;;;;;;8.80;2.97;;;10.60;99.90;;;;;;5071532;28;20197;-73
2024/02/05 07:49:57;;;;;;;5.73;3.03;;;10.70;99.90;;;;;;5071787;28;20166;-73
2024/02/05 07:52:23;;;;;;;8.80;3.47;;;10.70;99.90;;;;;;5070186;28;20212;-72
2024/02/05 07:54:48;;;;;;;11.43;3.70;;;10.80;99.90;;;;;;5071843;28;20170;-72
2024/02/05 07:57:14;;;;;;;14.30;3.07;;;10.80;99.90;;;;;;5071731;28;20186;-72
2024/02/05 07:59:39;;;;;;;9.53;3.47;;;10.90;99.90;;;;;;5071430;28;20177;-72
2024/02/05 08:02:06;;;;;;;10.57;3.50;;;10.90;99.90;;;;;;5071686;28;20198;-73
2024/02/05 08:04:31;;;;;;;7.73;2.90;;;11.00;99.90;;;;;;5071546;28;20186;-72
2024/02/05 08:06:59;;;;;;;9.13;2.87;;;11.00;99.90;;;;;;5071215;28;20440;-72
2024/02/05 08:09:25;;;;;;;8.63;3.40;;;11.00;99.90;;;;;;5071379;28;20764;-73
2024/02/05 08:11:50;;;;;;;7.97;2.63;;;11.20;99.90;;;;;;5071476;28;20424;-73
2024/02/05 08:14:16;;;;;;;10.50;2.70;;;11.40;99.90;;;;;;5071570;28;20397;-72
2024/02/05 08:16:41;;;;;;;6.03;2.53;;;11.70;99.90;;;;;;5071564;28;20186;-72
2024/02/05 08:19:08;;;;;;;8.40;2.73;;;11.90;99.90;;;;;;5071361;28;20562;-72
2024/02/05 08:21:35;;;;;;;9.70;3.53;;;12.10;99.90;;;;;;5071400;28;20193;-73
2024/02/05 08:24:01;;;;;;;14.57;3.97;;;12.50;99.90;;;;;;5071358;28;20448;-73
2024/02/05 08:26:27;;;;;;;17.47;3.63;;;13.00;99.90;;;;;;5071400;28;20430;-72
2024/02/05 08:28:53;;;;;;;5.90;2.10;;;13.60;99.90;;;;;;5071386;28;20196;-73
2024/02/05 08:31:20;;;;;;;16.77;2.87;;;14.20;99.90;;;;;;5071824;28;20432;-73
2024/02/05 08:33:46;;;;;;;8.40;2.90;;;14.80;99.90;;;;;;5071361;28;20253;-72
2024/02/05 08:36:12;;;;;;;4.40;2.50;;;15.40;99.90;;;;;;5071306;28;20452;-73
2024/02/05 08:38:38;;;;;;;12.47;2.40;;;15.80;99.90;;;;;;5071168;28;20205;-73
2024/02/05 08:41:03;;;;;;;3.77;2.47;;;16.50;99.90;;;;;;5071253;28;20452;-72
2024/02/05 08:43:29;;;;;;;3.63;1.87;;;17.10;99.90;;;;;;5071259;28;20182;-73
2024/02/05 08:45:54;;;;;;;11.27;2.60;;;17.30;99.90;;;;;;5071177;28;20190;-73
2024/02/05 08:48:20;;;;;;;4.30;2.70;;;17.80;99.90;;;;;;5069695;28;20533;-73
2024/02/05 08:50:46;;;;;;;13.27;3.37;;;17.90;99.90;;;;;;5069928;28;20642;-72
2024/02/05 08:53:11;;;;;;;11.87;3.37;;;18.60;99.90;;;;;;5070467;28;20738;-65
2024/02/05 08:55:38;;;;;;;5.13;2.30;;;18.70;97.30;;;;;;5070744;28;20569;-64
2024/02/05 08:58:04;;;;;;;9.23;3.23;;;19.40;94.70;;;;;;5070204;28;20659;-65
2024/02/05 09:00:29;;;;;;;7.27;3.00;;;20.10;83.70;;;;;;5071001;28;20412;-65
2024/02/05 09:02:55;;;;;;;7.37;2.67;;;19.70;70.90;;;;;;5070950;28;20660;-65
2024/02/05 09:05:21;;;;;;;8.10;2.67;;;19.70;70.30;;;;;;5074518;28;20187;-65
2024/02/05 09:07:46;;;;;;;13.63;3.47;;;19.70;70.20;;;;;;5074405;28;20166;-68
2024/02/05 09:10:12;;;;;;;7.17;2.90;;;20.30;70.50;;;;;;5074586;28;20907;-68
2024/02/05 09:12:38;;;;;;;4.73;2.33;;;20.90;64.00;;;;;;5074312;28;20197;-67
2024/02/05 09:15:04;;;;;;;3.93;2.57;;;21.60;60.00;;;;;;5074488;28;20428;-67
2024/02/05 09:17:30;;;;;;;4.40;2.73;;;21.60;56.20;;;;;;5074387;28;20177;-69
2024/02/05 09:19:56;;;;;;;8.80;3.20;;;22.10;55.70;;;;;;5074463;28;20830;-67
2024/02/05 09:22:22;;;;;;;10.43;3.40;;;22.50;53.50;;;;;;5074449;28;20400;-69
2024/02/05 09:24:47;;;;;;;10.17;3.10;;;22.60;52.50;;;;;;5073954;28;20198;-65
2024/02/05 09:27:13;;;;;;;11.90;3.60;;;22.60;50.00;;;;;;5074059;28;20708;-65
2024/02/05 09:29:38;;;;;;;5.07;3.00;;;22.60;50.00;;;;;;5073919;28;20162;-65
2024/02/05 09:32:07;;;;;;;5.97;2.93;;;22.90;49.70;;;;;;5073999;28;20162;-64
2024/02/05 09:34:35;;;;;;;10.53;3.33;;;22.70;48.40;;;;;;5074022;28;20173;-65
2024/02/05 09:37:02;;;;;;;6.90;2.70;;;22.20;48.30;;;;;;5073820;28;20421;-65
2024/02/05 09:39:27;;;;;;;15.87;4.07;;;22.20;48.40;;;;;;5073703;28;20397;-65
2024/02/05 09:41:54;;;;;;;10.67;2.70;;;22.80;49.40;;;;;;5074051;28;20783;-65
2024/02/05 09:44:21;;;;;;;9.73;3.07;;;22.90;48.30;;;;;;5073735;28;20213;-65
2024/02/05 09:46:52;;;;;;;8.33;3.43;;;23.50;47.70;;;;;;5073732;28;20413;-66
2024/02/05 09:49:18;;;;;;;7.33;2.53;;;23.90;46.00;;;;;;5073661;28;20414;-65
2024/02/05 09:51:47;;;;;;;13.47;3.17;;;23.50;44.90;;;;;;5073701;28;20392;-65
2024/02/05 09:54:14;;;;;;;7.60;3.63;;;23.50;45.00;;;;;;5073555;28;20598;-65
2024/02/05 09:56:41;;;;;;;6.00;3.40;;;23.60;44.60;;;;;;5073675;28;20486;-65
2024/02/05 09:59:07;;;;;;;7.83;3.27;;;23.10;44.30;;;;;;5073421;28;20950;-65
2024/02/05 10:01:34;;;;;;;16.37;3.13;;;23.10;44.80;;;;;;5073562;28;20813;-65
2024/02/05 10:04:01;;;;;;;6.57;3.37;;;23.10;44.70;;;;;;5073400;28;20444;-65
2024/02/05 10:06:33;;;;;;;7.63;2.70;;;23.30;44.70;;;;;;5073323;28;20432;-65
2024/02/05 10:09:04;;;;;;;11.37;4.60;;;24.10;45.10;;;;;;5073119;28;20450;-65
2024/02/05 10:11:31;;;;;;;5.73;4.30;;;23.90;43.40;;;;;;5072232;28;20447;-65
2024/02/05 10:13:57;;;;;;;18.07;3.47;;;23.50;43.60;;;;;;5073163;28;20444;-65
2024/02/05 10:16:22;;;;;;;13.20;3.30;;;23.50;43.20;;;;;;5073132;28;20452;-65
2024/02/05 10:18:49;;;;;;;9.80;3.03;;;23.50;44.30;;;;;;5072918;28;20174;-66
2024/02/05 10:21:15;;;;;;;9.07;2.87;;;24.80;44.90;;;;;;5073278;28;20162;-66
2024/02/05 10:23:43;;;;;;;8.80;3.20;;;26.20;42.80;;;;;;5072838;28;20488;-66
2024/02/05 10:26:09;;;;;;;8.80;3.10;;;25.60;40.10;;;;;;5072992;28;20421;-66
2024/02/05 10:28:35;;;;;;;7.07;2.53;;;26.20;41.30;;;;;;5072786;28;20400;-66
2024/02/05 10:31:07;;;;;;;5.97;3.77;;;26.30;39.50;;;;;;5072777;28;20166;-67
2024/02/05 10:33:33;;;;;;;8.93;2.90;;;26.40;39.30;;;;;;5072953;28;20899;-66
2024/02/05 10:35:58;;;;;;;7.33;3.20;;;26.00;38.50;;;;;;5072835;28;20482;-66
2024/02/05 10:38:28;;;;;;;16.53;3.37;;;25.40;38.50;;;;;;5072637;28;20170;-66
2024/02/05 10:40:54;;;;;;;12.60;2.83;;;24.90;39.30;;;;;;5072770;28;20257;-66
2024/02/05 10:43:20;;;;;;;7.53;2.83;;;25.00;40.00;;;;;;5072646;28;20531;-66
2024/02/05 10:45:45;;;;;;;12.50;2.40;;;25.60;39.80;;;;;;5072473;28;20734;-66
2024/02/05 10:48:11;;;;;;;5.90;4.10;;;25.40;39.20;;;;;;5072322;28;20178;-67
2024/02/05 10:50:36;;;;;;;9.07;2.60;;;24.80;39.00;;;;;;5072640;28;20506;-66
2024/02/05 10:53:02;;;;;;;9.37;3.87;;;24.40;39.50;;;;;;5072343;28;20532;-66
2024/02/05 10:55:28;;;;;;;8.47;3.70;;;24.00;39.60;;;;;;5072372;28;20190;-66
2024/02/05 10:57:56;;;;;;;9.87;3.57;;;24.00;40.10;;;;;;5072142;28;20937;-66
2024/02/05 11:00:22;;;;;;;17.90;3.80;;;24.70;40.60;;;;;;5072319;28;20220;-66
2024/02/05 11:02:55;;;;;;;4.13;3.00;;;24.50;39.70;;;;;;5072339;28;20400;-66
2024/02/05 11:05:22;;;;;;;6.20;2.93;;;24.80;40.60;;;;;;5072483;28;20213;-65
2024/02/05 11:08:05;;;;;;;6.87;3.13;;;25.80;40.70;;;;;;5072107;28;20397;-67
2024/02/05 11:10:32;;;;;;;6.90;3.40;;;27.00;39.00;;;;;;5072237;28;20400;-66
2024/02/05 11:12:59;;;;;;;10.90;3.03;;;27.90;37.60;;;;;;5072163;28;20401;-67
2024/02/05 11:15:31;;;;;;;12.03;3.13;;;27.90;36.00;;;;;;5072053;28;20427;-67
2024/02/05 11:18:00;;;;;;;7.97;3.27;;;27.50;35.50;;;;;;5072113;28;20401;-66
2024/02/05 11:20:28;;;;;;;8.00;4.03;;;26.70;35.20;;;;;;5072092;28;20432;-67
2024/02/05 11:22:55;;;;;;;5.20;3.33;;;25.80;36.20;;;;;;5071986;28;20481;-66
2024/02/05 11:25:22;;;;;;;6.03;2.67;;;26.80;38.00;;;;;;5071927;28;20460;-66
2024/02/05 11:27:47;;;;;;;6.47;2.50;;;26.80;36.50;;;;;;5071234;28;20417;-66
2024/02/05 11:30:15;;;;;;;9.03;3.60;;;27.20;36.90;;;;;;5072201;28;20405;-66
2024/02/05 11:32:41;;;;;;;9.33;3.27;;;26.30;35.50;;;;;;5071880;28;20197;-66
2024/02/05 11:35:13;;;;;;;6.13;2.50;;;26.70;36.90;;;;;;5071793;28;20443;-66
2024/02/05 11:37:42;;;;;;;5.40;2.40;;;26.10;36.00;;;;;;5071610;28;20169;-66
2024/02/05 11:40:30;;;;;;;6.40;2.37;;;26.00;37.00;;;;;;5071751;28;20435;-66
2024/02/05 11:43:06;;;;;;;6.27;2.70;;;26.20;37.00;;;;;;5071847;28;20538;-68
2024/02/05 11:45:32;;;;;;;7.07;2.73;;;27.10;37.80;;;;;;5071769;28;20590;-66
2024/02/05 11:48:03;;;;;;;8.43;2.47;;;28.00;35.90;;;;;;5070184;28;20407;-67
2024/02/05 11:50:32;;;;;;;7.17;4.47;;;28.60;35.30;;;;;;5071728;28;20443;-67
2024/02/05 11:52:58;;;;;;;7.70;2.70;;;27.90;34.70;;;;;;5071517;28;20420;-67
2024/02/05 11:55:25;;;;;;;7.77;3.07;;;27.20;35.00;;;;;;5071630;28;20424;-67
2024/02/05 11:57:51;;;;;;;9.70;2.77;;;26.10;35.20;;;;;;5071333;28;20190;-66
2024/02/05 12:00:21;;;;;;;3.87;2.00;;;26.10;36.70;;;;;;5071615;28;20419;-67
2024/02/05 12:02:46;;;;;;;8.47;4.13;;;27.10;37.30;;;;;;5071570;28;20404;-67
2024/02/05 12:05:13;;;;;;;5.70;2.53;;;28.40;36.10;;;;;;5071363;28;20459;-66
2024/02/05 12:07:39;;;;;;;9.00;2.80;;;28.60;34.30;;;;;;5071312;28;20587;-67
2024/02/05 12:10:05;;;;;;;7.70;2.80;;;29.20;34.70;;;;;;5071497;28;20396;-66
2024/02/05 12:12:31;;;;;;;10.53;4.10;;;28.80;33.50;;;;;;5071418;28;20407;-67
2024/02/05 12:14:57;;;;;;;11.83;2.97;;;28.50;33.80;;;;;;5071460;28;20409;-67
2024/02/05 12:17:23;;;;;;;8.97;2.90;;;27.80;33.90;;;;;;5071369;28;20205;-66
2024/02/05 12:19:59;;;;;;;10.20;3.90;;;26.70;34.30;;;;;;5071120;28;20166;-66
2024/02/05 12:22:29;;;;;;;8.70;2.80;;;23.80;34.60;;;;;;5071303;28;20439;-67
2024/02/05 12:24:55;;;;;;;9.00;3.00;;;22.40;36.80;;;;;;5071111;28;20483;-67
2024/02/05 12:27:21;;;;;;;9.33;2.90;;;21.10;38.60;;;;;;5071210;28;20404;-66
2024/02/05 12:29:46;;;;;;;4.80;3.70;;;20.10;40.50;;;;;;5070982;28;20411;-67
2024/02/05 12:32:12;;;;;;;8.00;2.93;;;19.70;42.60;;;;;;5071165;28;20488;-66
2024/02/05 12:34:38;;;;;;;5.70;3.27;;;20.00;43.70;;;;;;5071302;28;20209;-66
2024/02/05 12:37:08;;;;;;;5.23;2.93;;;19.40;44.20;;;;;;5071211;28;20186;-66
2024/02/05 12:39:35;;;;;;;12.73;3.90;;;19.50;45.00;;;;;;5072415;28;20423;-66